createdAt,value
2018-05-19T00:00:02.021Z,0
2018-05-19T00:00:34.047Z,0
2018-05-19T00:01:06.063Z,0
2018-05-19T00:01:38.078Z,0
2018-05-19T00:02:10.097Z,0
2018-05-19T00:02:42.104Z,0
2018-05-19T00:03:14.106Z,0
2018-05-19T00:03:46.107Z,0
2018-05-19T00:04:18.132Z,0
2018-05-19T00:04:50.165Z,0
2018-05-19T00:05:22.177Z,0
2018-05-19T00:05:54.204Z,0
2018-05-19T00:06:26.215Z,0
2018-05-19T00:06:58.249Z,0
2018-05-19T00:07:30.269Z,0
2018-05-19T00:08:02.937Z,0
2018-05-19T00:08:34.960Z,0
2018-05-19T00:09:06.969Z,0
2018-05-19T00:09:39.078Z,0
2018-05-19T00:10:11.155Z,0
2018-05-19T00:10:43.160Z,0
2018-05-19T00:11:15.174Z,0
2018-05-19T00:11:47.227Z,0
2018-05-19T00:12:19.193Z,0
2018-05-19T00:12:51.268Z,0
2018-05-19T00:13:23.368Z,0
2018-05-19T00:13:55.385Z,0
2018-05-19T00:14:27.429Z,0
2018-05-19T00:14:59.420Z,0
2018-05-19T00:15:31.454Z,0
2018-05-19T00:16:03.477Z,0
2018-05-19T00:16:35.532Z,0
2018-05-19T00:17:07.616Z,0
2018-05-19T00:17:39.649Z,0
2018-05-19T00:18:11.694Z,0
2018-05-19T00:18:44.231Z,0
2018-05-19T00:19:16.256Z,0
2018-05-19T00:19:48.296Z,0
2018-05-19T00:20:20.332Z,0
2018-05-19T00:20:52.360Z,0
2018-05-19T00:21:24.393Z,0
2018-05-19T00:21:56.413Z,0
2018-05-19T00:22:28.451Z,0
2018-05-19T00:23:00.535Z,0
2018-05-19T00:23:32.556Z,0
2018-05-19T00:24:04.639Z,0
2018-05-19T00:24:36.702Z,0
2018-05-19T00:25:08.756Z,0
2018-05-19T00:25:40.775Z,0
2018-05-19T00:26:12.875Z,0
2018-05-19T00:26:44.966Z,0
2018-05-19T00:27:16.969Z,0
2018-05-19T00:27:49.020Z,0
2018-05-19T00:28:21.034Z,0
2018-05-19T00:28:53.093Z,0
2018-05-19T00:29:25.157Z,0
2018-05-19T00:29:57.147Z,0
2018-05-19T00:30:29.168Z,0
2018-05-19T00:31:01.212Z,0
2018-05-19T00:31:33.242Z,0
2018-05-19T00:32:05.260Z,0
2018-05-19T00:32:37.302Z,0
2018-05-19T00:33:09.369Z,0
2018-05-19T00:33:41.400Z,0
2018-05-19T00:34:13.429Z,0
2018-05-19T00:34:45.573Z,0
2018-05-19T00:35:17.573Z,0
2018-05-19T00:35:49.643Z,0
2018-05-19T00:36:21.673Z,0
2018-05-19T00:36:53.676Z,0
2018-05-19T00:37:25.720Z,0
2018-05-19T00:37:57.740Z,0
2018-05-19T00:38:29.773Z,0
2018-05-19T00:39:01.830Z,0
2018-05-19T00:39:33.821Z,0
2018-05-19T00:40:05.846Z,0
2018-05-19T00:40:37.847Z,0
2018-05-19T00:41:09.915Z,0
2018-05-19T00:41:41.944Z,0
2018-05-19T00:42:13.973Z,0
2018-05-19T00:42:46.003Z,0
2018-05-19T00:43:18.062Z,0
2018-05-19T00:43:50.636Z,0
2018-05-19T00:44:22.630Z,0
2018-05-19T00:44:54.624Z,0
2018-05-19T00:45:26.684Z,0
2018-05-19T00:45:58.825Z,0
2018-05-19T00:46:30.864Z,0
2018-05-19T00:47:02.914Z,0
2018-05-19T00:47:34.949Z,0
2018-05-19T00:48:06.959Z,0
2018-05-19T00:48:39.013Z,0
2018-05-19T00:49:11.041Z,0
2018-05-19T00:49:43.087Z,0
2018-05-19T00:50:15.094Z,0
2018-05-19T00:50:47.103Z,0
2018-05-19T00:51:19.125Z,0
2018-05-19T00:51:51.120Z,0
2018-05-19T00:52:23.143Z,0
2018-05-19T00:52:55.147Z,0
2018-05-19T00:53:30.977Z,0
2018-05-19T00:54:03.023Z,0
2018-05-19T00:54:35.036Z,0
2018-05-19T00:55:07.051Z,0
2018-05-19T00:55:39.074Z,0
2018-05-19T00:56:11.092Z,0
2018-05-19T00:56:43.148Z,0
2018-05-19T00:57:15.180Z,0
2018-05-19T00:57:47.182Z,0
2018-05-19T00:58:19.244Z,0
2018-05-19T00:58:51.303Z,0
2018-05-19T00:59:23.321Z,0
2018-05-19T00:59:55.369Z,0
2018-05-19T01:00:27.343Z,0
2018-05-19T01:00:59.369Z,0
2018-05-19T01:01:31.385Z,0
2018-05-19T01:02:03.525Z,0
2018-05-19T01:02:35.637Z,0
2018-05-19T01:03:07.703Z,0
2018-05-19T01:03:39.759Z,0
2018-05-19T01:04:12.755Z,0
2018-05-19T01:04:44.764Z,0
2018-05-19T01:05:16.753Z,0
2018-05-19T01:05:48.800Z,0
2018-05-19T01:06:21.344Z,0
2018-05-19T01:06:53.876Z,0
2018-05-19T01:07:25.902Z,0
2018-05-19T01:07:57.936Z,0
2018-05-19T01:08:29.952Z,0
2018-05-19T01:09:01.970Z,0
2018-05-19T01:09:33.984Z,0
2018-05-19T01:10:06.009Z,0
2018-05-19T01:10:38.067Z,0
2018-05-19T01:11:10.114Z,0
2018-05-19T01:11:42.134Z,0
2018-05-19T01:12:14.167Z,0
2018-05-19T01:12:46.211Z,0
2018-05-19T01:13:18.196Z,0
2018-05-19T01:13:50.227Z,0
2018-05-19T01:14:22.244Z,0
2018-05-19T01:14:54.283Z,0
2018-05-19T01:15:26.299Z,0
2018-05-19T01:15:58.277Z,0
2018-05-19T01:16:30.285Z,0
2018-05-19T01:17:02.284Z,0
2018-05-19T01:17:34.307Z,0
2018-05-19T01:18:06.354Z,0
2018-05-19T01:18:38.323Z,0
2018-05-19T01:19:10.378Z,0
2018-05-19T01:19:42.449Z,0
2018-05-19T01:20:14.545Z,0
2018-05-19T01:20:46.562Z,0
2018-05-19T01:21:18.598Z,0
2018-05-19T01:21:50.597Z,0
2018-05-19T01:22:22.635Z,0
2018-05-19T01:22:54.660Z,0
2018-05-19T01:23:26.705Z,0
2018-05-19T01:23:58.849Z,0
2018-05-19T01:24:30.892Z,0
2018-05-19T01:25:02.927Z,0
2018-05-19T01:25:34.956Z,0
2018-05-19T01:26:07.007Z,0
2018-05-19T01:26:39.101Z,0
2018-05-19T01:27:11.091Z,0
2018-05-19T01:27:43.125Z,0
2018-05-19T01:28:15.258Z,0
2018-05-19T01:28:47.335Z,0
2018-05-19T01:29:19.381Z,0
2018-05-19T01:29:51.441Z,0
2018-05-19T01:30:23.510Z,0
2018-05-19T01:30:55.690Z,0
2018-05-19T01:31:27.819Z,0
2018-05-19T01:31:59.798Z,0
2018-05-19T01:32:31.814Z,0
2018-05-19T01:33:03.869Z,0
2018-05-19T01:33:35.952Z,0
2018-05-19T01:34:07.951Z,0
2018-05-19T01:34:39.974Z,0
2018-05-19T01:35:12.001Z,0
2018-05-19T01:35:44.037Z,0
2018-05-19T01:36:16.035Z,0
2018-05-19T01:36:48.056Z,0
2018-05-19T01:37:20.078Z,0
2018-05-19T01:37:52.053Z,0
2018-05-19T01:38:24.058Z,0
2018-05-19T01:38:56.108Z,0
2018-05-19T01:39:28.144Z,0
2018-05-19T01:40:00.193Z,0
2018-05-19T01:40:32.249Z,0
2018-05-19T01:41:04.272Z,0
2018-05-19T01:41:36.297Z,0
2018-05-19T01:42:08.323Z,0
2018-05-19T01:42:40.334Z,0
2018-05-19T01:43:12.379Z,0
2018-05-19T01:43:44.394Z,0
2018-05-19T01:44:16.411Z,0
2018-05-19T01:44:48.384Z,0
2018-05-19T01:45:20.398Z,0
2018-05-19T01:45:52.415Z,0
2018-05-19T01:46:24.432Z,0
2018-05-19T01:46:56.456Z,0
2018-05-19T01:47:28.487Z,0
2018-05-19T01:48:00.496Z,0
2018-05-19T01:48:32.518Z,0
2018-05-19T01:49:04.525Z,0
2018-05-19T01:49:37.076Z,0
2018-05-19T01:50:09.100Z,0
2018-05-19T01:50:41.107Z,0
2018-05-19T01:51:13.121Z,0
2018-05-19T01:51:45.138Z,0
2018-05-19T01:52:17.205Z,0
2018-05-19T01:52:49.289Z,0
2018-05-19T01:53:21.274Z,0
2018-05-19T01:53:53.299Z,0
2018-05-19T01:54:25.335Z,0
2018-05-19T01:54:57.413Z,0
2018-05-19T01:55:29.399Z,0
2018-05-19T01:56:01.461Z,0
2018-05-19T01:56:33.439Z,0
2018-05-19T01:57:05.463Z,0
2018-05-19T01:57:37.522Z,0
2018-05-19T01:58:09.559Z,0
2018-05-19T01:58:41.598Z,0
2018-05-19T01:59:13.641Z,0
2018-05-19T01:59:46.162Z,0
2018-05-19T02:00:18.194Z,0
2018-05-19T02:00:50.213Z,0
2018-05-19T02:01:22.285Z,0
2018-05-19T02:01:54.370Z,0
2018-05-19T02:02:26.402Z,0
2018-05-19T02:02:58.430Z,0
2018-05-19T02:03:30.517Z,0
2018-05-19T02:04:02.521Z,0
2018-05-19T02:04:34.536Z,0
2018-05-19T02:05:06.574Z,0
2018-05-19T02:05:38.592Z,0
2018-05-19T02:06:10.600Z,0
2018-05-19T02:06:42.687Z,0
2018-05-19T02:07:14.705Z,0
2018-05-19T02:07:46.705Z,0
2018-05-19T02:08:18.697Z,0
2018-05-19T02:08:50.850Z,0
2018-05-19T02:09:22.861Z,0
2018-05-19T02:09:54.864Z,0
2018-05-19T02:10:26.892Z,0
2018-05-19T02:10:58.945Z,0
2018-05-19T02:11:30.979Z,0
2018-05-19T02:12:03.043Z,0
2018-05-19T02:12:35.092Z,0
2018-05-19T02:13:07.099Z,0
2018-05-19T02:13:39.065Z,0
2018-05-19T02:14:11.105Z,0
2018-05-19T02:14:43.121Z,0
2018-05-19T02:15:15.131Z,0
2018-05-19T02:15:47.125Z,0
2018-05-19T02:16:19.128Z,0
2018-05-19T02:16:51.139Z,0
2018-05-19T02:17:23.159Z,0
2018-05-19T02:17:55.212Z,0
2018-05-19T02:18:27.179Z,0
2018-05-19T02:18:59.195Z,0
2018-05-19T02:19:31.217Z,0
2018-05-19T02:20:03.257Z,0
2018-05-19T02:20:35.300Z,0
2018-05-19T02:21:07.377Z,0
2018-05-19T02:21:39.400Z,0
2018-05-19T02:22:11.433Z,0
2018-05-19T02:22:43.457Z,0
2018-05-19T02:23:15.449Z,0
2018-05-19T02:23:47.488Z,0
2018-05-19T02:24:19.505Z,0
2018-05-19T02:24:51.515Z,0
2018-05-19T02:25:23.567Z,0
2018-05-19T02:25:55.669Z,0
2018-05-19T02:26:27.706Z,0
2018-05-19T02:27:00.586Z,0
2018-05-19T02:27:32.631Z,0
2018-05-19T02:28:04.658Z,0
2018-05-19T02:28:38.293Z,0
2018-05-19T02:29:10.310Z,0
2018-05-19T02:29:42.333Z,0
2018-05-19T02:30:14.375Z,0
2018-05-19T02:30:46.561Z,0
2018-05-19T02:31:19.487Z,0
2018-05-19T02:31:51.545Z,0
2018-05-19T02:32:23.545Z,0
2018-05-19T02:32:55.569Z,0
2018-05-19T02:33:27.585Z,0
2018-05-19T02:33:59.629Z,0
2018-05-19T02:34:31.639Z,0
2018-05-19T02:35:03.710Z,0
2018-05-19T02:35:35.701Z,0
2018-05-19T02:36:07.716Z,0
2018-05-19T02:36:39.787Z,0
2018-05-19T02:37:11.836Z,0
2018-05-19T02:37:43.858Z,0
2018-05-19T02:38:15.902Z,0
2018-05-19T02:38:47.951Z,0
2018-05-19T02:39:20.012Z,0
2018-05-19T02:39:52.025Z,0
2018-05-19T02:40:24.069Z,0
2018-05-19T02:40:56.144Z,0
2018-05-19T02:41:28.178Z,0
2018-05-19T02:42:00.219Z,0
2018-05-19T02:42:32.255Z,0
2018-05-19T02:43:04.452Z,0
2018-05-19T02:43:36.513Z,0
2018-05-19T02:44:08.520Z,0
2018-05-19T02:44:40.569Z,0
2018-05-19T02:45:12.552Z,0
2018-05-19T02:45:44.616Z,0
2018-05-19T02:46:16.662Z,0
2018-05-19T02:46:48.665Z,0
2018-05-19T02:47:20.709Z,0
2018-05-19T02:47:52.774Z,0
2018-05-19T02:48:24.939Z,0
2018-05-19T02:48:57.045Z,0
2018-05-19T02:49:29.070Z,0
2018-05-19T02:50:01.078Z,0
2018-05-19T02:50:33.177Z,0
2018-05-19T02:51:05.243Z,0
2018-05-19T02:51:37.287Z,0
2018-05-19T02:52:09.325Z,0
2018-05-19T02:52:41.357Z,0
2018-05-19T02:53:13.398Z,0
2018-05-19T02:53:45.410Z,0
2018-05-19T02:54:17.431Z,0
2018-05-19T02:54:49.430Z,0
2018-05-19T02:55:21.457Z,0
2018-05-19T02:55:53.431Z,0
2018-05-19T02:56:25.470Z,0
2018-05-19T02:56:57.526Z,4
2018-05-19T02:57:29.681Z,4
2018-05-19T02:58:01.731Z,4
2018-05-19T02:58:33.743Z,4
2018-05-19T02:59:05.775Z,4
2018-05-19T02:59:37.823Z,4
2018-05-19T03:00:09.845Z,0
2018-05-19T03:00:41.861Z,0
2018-05-19T03:01:13.882Z,0
2018-05-19T03:01:46.006Z,4
2018-05-19T03:02:18.040Z,4
2018-05-19T03:02:50.013Z,4
2018-05-19T03:03:22.011Z,4
2018-05-19T03:03:54.113Z,4
2018-05-19T03:04:26.152Z,8
2018-05-19T03:04:58.147Z,4
2018-05-19T03:05:30.183Z,4
2018-05-19T03:06:02.200Z,4
2018-05-19T03:06:34.252Z,8
2018-05-19T03:07:06.299Z,8
2018-05-19T03:07:38.361Z,8
2018-05-19T03:08:10.414Z,8
2018-05-19T03:08:42.551Z,8
2018-05-19T03:09:14.653Z,8
2018-05-19T03:09:46.713Z,12
2018-05-19T03:10:18.723Z,8
2018-05-19T03:10:50.824Z,12
2018-05-19T03:11:22.876Z,12
2018-05-19T03:11:54.888Z,16
2018-05-19T03:12:26.940Z,12
2018-05-19T03:12:58.953Z,16
2018-05-19T03:13:31.004Z,16
2018-05-19T03:14:03.008Z,16
2018-05-19T03:14:35.026Z,16
2018-05-19T03:15:07.081Z,16
2018-05-19T03:15:39.122Z,16
2018-05-19T03:16:11.145Z,20
2018-05-19T03:16:43.185Z,20
2018-05-19T03:17:15.387Z,20
2018-05-19T03:17:47.485Z,20
2018-05-19T03:18:19.522Z,24
2018-05-19T03:18:51.569Z,24
2018-05-19T03:19:23.602Z,28
2018-05-19T03:19:55.610Z,24
2018-05-19T03:20:27.675Z,28
2018-05-19T03:20:59.672Z,28
2018-05-19T03:21:31.695Z,32
2018-05-19T03:22:03.726Z,32
2018-05-19T03:22:35.742Z,36
2018-05-19T03:23:07.724Z,36
2018-05-19T03:23:39.731Z,36
2018-05-19T03:24:11.773Z,40
2018-05-19T03:24:43.780Z,40
2018-05-19T03:25:15.880Z,40
2018-05-19T03:25:47.885Z,44
2018-05-19T03:26:19.904Z,44
2018-05-19T03:26:51.915Z,44
2018-05-19T03:27:23.951Z,48
2018-05-19T03:27:55.959Z,48
2018-05-19T03:28:28.081Z,52
2018-05-19T03:29:00.079Z,52
2018-05-19T03:29:32.099Z,52
2018-05-19T03:30:04.141Z,56
2018-05-19T03:30:36.180Z,52
2018-05-19T03:31:08.184Z,56
2018-05-19T03:31:40.218Z,56
2018-05-19T03:32:12.245Z,60
2018-05-19T03:32:44.307Z,60
2018-05-19T03:33:16.321Z,64
2018-05-19T03:33:48.385Z,68
2018-05-19T03:34:20.590Z,64
2018-05-19T03:34:52.693Z,68
2018-05-19T03:35:24.705Z,76
2018-05-19T03:35:56.821Z,76
2018-05-19T03:36:28.793Z,80
2018-05-19T03:37:00.897Z,84
2018-05-19T03:37:32.954Z,84
2018-05-19T03:38:04.982Z,88
2018-05-19T03:38:36.985Z,92
2018-05-19T03:39:09.010Z,96
2018-05-19T03:39:41.097Z,96
2018-05-19T03:40:13.204Z,96
2018-05-19T03:40:45.238Z,104
2018-05-19T03:41:17.268Z,108
2018-05-19T03:41:49.491Z,108
2018-05-19T03:42:21.632Z,112
2018-05-19T03:42:53.571Z,116
2018-05-19T03:43:25.607Z,120
2018-05-19T03:43:57.641Z,124
2018-05-19T03:44:29.646Z,128
2018-05-19T03:45:01.656Z,132
2018-05-19T03:45:33.705Z,136
2018-05-19T03:46:05.753Z,140
2018-05-19T03:46:37.795Z,148
2018-05-19T03:47:09.813Z,148
2018-05-19T03:47:41.907Z,156
2018-05-19T03:48:13.897Z,160
2018-05-19T03:48:45.920Z,164
2018-05-19T03:49:17.940Z,168
2018-05-19T03:49:49.967Z,172
2018-05-19T03:50:22.008Z,176
2018-05-19T03:50:54.044Z,180
2018-05-19T03:51:26.144Z,184
2018-05-19T03:51:58.180Z,184
2018-05-19T03:52:30.212Z,188
2018-05-19T03:53:02.229Z,192
2018-05-19T03:53:34.255Z,196
2018-05-19T03:54:06.309Z,196
2018-05-19T03:54:38.313Z,200
2018-05-19T03:55:10.353Z,204
2018-05-19T03:55:43.007Z,208
2018-05-19T03:56:15.015Z,212
2018-05-19T03:56:47.113Z,216
2018-05-19T03:57:19.120Z,220
2018-05-19T03:57:51.149Z,224
2018-05-19T03:58:23.193Z,228
2018-05-19T03:58:55.222Z,232
2018-05-19T03:59:27.252Z,236
2018-05-19T03:59:59.273Z,244
2018-05-19T04:00:31.345Z,244
2018-05-19T04:01:03.343Z,252
2018-05-19T04:01:35.393Z,256
2018-05-19T04:02:07.416Z,264
2018-05-19T04:02:39.433Z,268
2018-05-19T04:03:11.435Z,272
2018-05-19T04:03:43.955Z,280
2018-05-19T04:04:15.995Z,284
2018-05-19T04:04:48.027Z,288
2018-05-19T04:05:20.032Z,292
2018-05-19T04:05:52.051Z,296
2018-05-19T04:06:24.007Z,296
2018-05-19T04:06:56.035Z,304
2018-05-19T04:07:28.033Z,304
2018-05-19T04:08:00.032Z,312
2018-05-19T04:08:32.209Z,316
2018-05-19T04:09:04.196Z,316
2018-05-19T04:09:36.255Z,320
2018-05-19T04:10:08.296Z,324
2018-05-19T04:10:40.360Z,328
2018-05-19T04:11:12.497Z,332
2018-05-19T04:11:44.502Z,336
2018-05-19T04:12:16.517Z,340
2018-05-19T04:12:48.550Z,344
2018-05-19T04:13:20.635Z,348
2018-05-19T04:13:52.669Z,356
2018-05-19T04:14:24.705Z,364
2018-05-19T04:14:56.728Z,368
2018-05-19T04:15:28.729Z,380
2018-05-19T04:16:00.923Z,384
2018-05-19T04:16:32.963Z,392
2018-05-19T04:17:05.004Z,396
2018-05-19T04:17:37.032Z,404
2018-05-19T04:18:09.074Z,408
2018-05-19T04:18:41.104Z,416
2018-05-19T04:19:13.146Z,420
2018-05-19T04:19:45.134Z,424
2018-05-19T04:20:17.156Z,428
2018-05-19T04:20:49.186Z,436
2018-05-19T04:21:21.851Z,440
2018-05-19T04:21:53.899Z,448
2018-05-19T04:22:26.033Z,456
2018-05-19T04:22:58.055Z,460
2018-05-19T04:23:30.113Z,472
2018-05-19T04:24:02.151Z,476
2018-05-19T04:24:34.196Z,488
2018-05-19T04:25:06.195Z,492
2018-05-19T04:25:38.265Z,500
2018-05-19T04:26:10.302Z,508
2018-05-19T04:26:42.407Z,516
2018-05-19T04:27:14.541Z,528
2018-05-19T04:27:46.576Z,528
2018-05-19T04:28:18.644Z,536
2018-05-19T04:28:50.710Z,544
2018-05-19T04:29:22.751Z,556
2018-05-19T04:29:54.755Z,560
2018-05-19T04:30:26.791Z,572
2018-05-19T04:30:58.886Z,580
2018-05-19T04:31:30.952Z,588
2018-05-19T04:32:02.911Z,596
2018-05-19T04:32:34.949Z,612
2018-05-19T04:33:06.961Z,620
2018-05-19T04:33:39.039Z,632
2018-05-19T04:34:11.063Z,644
2018-05-19T04:34:43.047Z,656
2018-05-19T04:35:15.013Z,668
2018-05-19T04:35:47.048Z,680
2018-05-19T04:36:19.083Z,696
2018-05-19T04:36:51.983Z,708
2018-05-19T04:37:24.040Z,724
2018-05-19T04:37:56.053Z,748
2018-05-19T04:38:28.120Z,768
2018-05-19T04:39:00.120Z,780
2018-05-19T04:39:32.155Z,844
2018-05-19T04:40:04.160Z,860
2018-05-19T04:40:36.199Z,880
2018-05-19T04:41:08.239Z,896
2018-05-19T04:41:40.275Z,912
2018-05-19T04:42:12.284Z,932
2018-05-19T04:42:44.293Z,936
2018-05-19T04:43:16.328Z,948
2018-05-19T04:43:48.969Z,964
2018-05-19T04:44:21.022Z,984
2018-05-19T04:44:53.027Z,1000
2018-05-19T04:45:26.049Z,1008
2018-05-19T04:45:58.106Z,992
2018-05-19T04:46:30.128Z,1020
2018-05-19T04:47:02.152Z,1044
2018-05-19T04:47:34.317Z,1056
2018-05-19T04:48:06.355Z,1064
2018-05-19T04:48:38.403Z,1100
2018-05-19T04:49:10.411Z,1128
2018-05-19T04:49:42.417Z,1120
2018-05-19T04:50:14.436Z,1096
2018-05-19T04:50:46.481Z,1148
2018-05-19T04:51:18.478Z,1128
2018-05-19T04:51:50.498Z,1196
2018-05-19T04:52:22.541Z,1224
2018-05-19T04:52:54.600Z,1188
2018-05-19T04:53:26.711Z,1100
2018-05-19T04:53:58.759Z,1224
2018-05-19T04:54:30.793Z,1188
2018-05-19T04:55:02.828Z,1264
2018-05-19T04:55:34.855Z,1284
2018-05-19T04:56:06.894Z,1268
2018-05-19T04:56:38.945Z,1324
2018-05-19T04:57:10.970Z,1352
2018-05-19T04:57:43.002Z,1356
2018-05-19T04:58:15.040Z,1336
2018-05-19T04:58:47.067Z,1300
2018-05-19T04:59:19.071Z,1376
2018-05-19T04:59:51.099Z,1440
2018-05-19T05:00:23.141Z,1444
2018-05-19T05:00:55.200Z,1440
2018-05-19T05:01:27.200Z,1452
2018-05-19T05:01:59.240Z,1448
2018-05-19T05:02:31.254Z,1460
2018-05-19T05:03:03.989Z,1488
2018-05-19T05:03:36.055Z,1504
2018-05-19T05:04:08.503Z,1492
2018-05-19T05:04:40.616Z,1520
2018-05-19T05:05:12.669Z,1520
2018-05-19T05:05:44.701Z,1540
2018-05-19T05:06:16.730Z,1592
2018-05-19T05:06:48.691Z,1616
2018-05-19T05:07:21.457Z,1628
2018-05-19T05:07:53.592Z,1644
2018-05-19T05:08:25.605Z,1656
2018-05-19T05:08:57.621Z,1680
2018-05-19T05:09:29.660Z,1696
2018-05-19T05:10:01.798Z,1720
2018-05-19T05:10:33.860Z,1744
2018-05-19T05:11:05.872Z,1764
2018-05-19T05:11:37.888Z,1784
2018-05-19T05:12:09.889Z,1804
2018-05-19T05:12:41.919Z,1828
2018-05-19T05:13:13.933Z,1856
2018-05-19T05:13:46.771Z,1872
2018-05-19T05:14:18.867Z,1868
2018-05-19T05:14:50.974Z,1872
2018-05-19T05:15:22.985Z,1896
2018-05-19T05:15:55.027Z,1908
2018-05-19T05:16:27.075Z,1912
2018-05-19T05:16:59.106Z,1916
2018-05-19T05:17:31.126Z,1924
2018-05-19T05:18:03.132Z,1972
2018-05-19T05:18:35.174Z,2000
2018-05-19T05:19:07.196Z,2000
2018-05-19T05:19:39.384Z,2000
2018-05-19T05:20:11.417Z,1992
2018-05-19T05:20:43.408Z,1984
2018-05-19T05:21:15.441Z,2004
2018-05-19T05:21:47.524Z,2008
2018-05-19T05:22:19.634Z,2012
2018-05-19T05:22:51.651Z,2024
2018-05-19T05:23:23.676Z,2036
2018-05-19T05:23:55.671Z,2048
2018-05-19T05:24:27.765Z,2064
2018-05-19T05:24:59.812Z,2072
2018-05-19T05:25:31.859Z,2088
2018-05-19T05:26:03.965Z,2120
2018-05-19T05:26:35.995Z,2144
2018-05-19T05:27:08.392Z,2156
2018-05-19T05:27:40.607Z,2168
2018-05-19T05:28:12.665Z,2172
2018-05-19T05:28:44.686Z,2200
2018-05-19T05:29:16.720Z,2216
2018-05-19T05:29:48.736Z,2204
2018-05-19T05:30:20.704Z,2196
2018-05-19T05:30:52.713Z,2216
2018-05-19T05:31:24.770Z,2232
2018-05-19T05:31:56.797Z,2240
2018-05-19T05:32:28.841Z,2220
2018-05-19T05:33:00.880Z,2196
2018-05-19T05:33:33.472Z,2220
2018-05-19T05:34:05.531Z,2288
2018-05-19T05:34:37.543Z,2316
2018-05-19T05:35:09.569Z,2356
2018-05-19T05:35:41.550Z,2404
2018-05-19T05:36:13.536Z,2376
2018-05-19T05:36:45.578Z,2372
2018-05-19T05:37:18.452Z,2336
2018-05-19T05:37:50.510Z,2344
2018-05-19T05:38:22.562Z,2392
2018-05-19T05:38:54.623Z,2404
2018-05-19T05:39:26.665Z,2448
2018-05-19T05:39:58.693Z,2480
2018-05-19T05:40:30.687Z,2472
2018-05-19T05:41:02.711Z,2472
2018-05-19T05:41:34.764Z,2432
2018-05-19T05:42:06.772Z,2444
2018-05-19T05:42:38.839Z,2540
2018-05-19T05:43:10.947Z,2568
2018-05-19T05:43:43.005Z,2576
2018-05-19T05:44:15.027Z,2576
2018-05-19T05:44:47.018Z,2616
2018-05-19T05:45:19.089Z,2656
2018-05-19T05:45:51.133Z,2692
2018-05-19T05:46:23.146Z,2692
2018-05-19T05:46:55.882Z,2724
2018-05-19T05:47:27.938Z,2720
2018-05-19T05:47:59.994Z,2724
2018-05-19T05:48:32.042Z,2744
2018-05-19T05:49:04.093Z,2772
2018-05-19T05:49:36.138Z,2804
2018-05-19T05:50:08.499Z,2844
2018-05-19T05:50:40.520Z,2880
2018-05-19T05:51:12.623Z,2900
2018-05-19T05:51:44.633Z,2920
2018-05-19T05:52:16.651Z,2936
2018-05-19T05:52:48.692Z,2952
2018-05-19T05:53:21.576Z,2952
2018-05-19T05:53:53.572Z,2940
2018-05-19T05:54:25.588Z,2948
2018-05-19T05:54:57.624Z,2936
2018-05-19T05:55:29.670Z,2948
2018-05-19T05:56:01.727Z,2980
2018-05-19T05:56:33.734Z,3028
2018-05-19T05:57:05.758Z,3060
2018-05-19T05:57:37.824Z,3084
2018-05-19T05:58:09.811Z,3096
2018-05-19T05:58:41.818Z,3112
2018-05-19T05:59:13.963Z,3128
2018-05-19T05:59:46.228Z,3152
2018-05-19T06:00:18.213Z,3172
2018-05-19T06:00:50.166Z,3176
2018-05-19T06:01:22.206Z,3184
2018-05-19T06:01:54.246Z,3184
2018-05-19T06:02:26.274Z,3208
2018-05-19T06:02:58.292Z,3236
2018-05-19T06:03:30.314Z,3264
2018-05-19T06:04:02.332Z,3272
2018-05-19T06:04:34.375Z,3312
2018-05-19T06:05:06.381Z,3348
2018-05-19T06:05:38.347Z,3396
2018-05-19T06:06:10.483Z,3436
2018-05-19T06:06:42.496Z,3472
2018-05-19T06:07:14.503Z,3480
2018-05-19T06:07:46.519Z,3484
2018-05-19T06:08:18.559Z,3500
2018-05-19T06:08:50.571Z,3528
2018-05-19T06:09:22.601Z,3536
2018-05-19T06:09:54.665Z,3544
2018-05-19T06:10:26.776Z,3564
2018-05-19T06:10:58.789Z,3576
2018-05-19T06:11:30.790Z,3608
2018-05-19T06:12:02.827Z,3644
2018-05-19T06:12:34.874Z,3680
2018-05-19T06:13:06.940Z,3696
2018-05-19T06:13:38.981Z,3688
2018-05-19T06:14:11.043Z,3700
2018-05-19T06:14:43.064Z,3712
2018-05-19T06:15:15.086Z,3736
2018-05-19T06:15:47.094Z,3752
2018-05-19T06:16:19.142Z,3780
2018-05-19T06:16:51.249Z,3792
2018-05-19T06:17:23.310Z,3820
2018-05-19T06:17:55.325Z,3836
2018-05-19T06:18:27.344Z,3836
2018-05-19T06:18:59.408Z,3860
2018-05-19T06:19:31.465Z,3880
2018-05-19T06:20:03.477Z,3868
2018-05-19T06:20:35.482Z,3880
2018-05-19T06:21:07.591Z,3900
2018-05-19T06:21:39.589Z,3900
2018-05-19T06:22:11.609Z,3888
2018-05-19T06:22:43.644Z,3924
2018-05-19T06:23:15.642Z,3968
2018-05-19T06:23:47.725Z,4012
2018-05-19T06:24:19.947Z,4044
2018-05-19T06:24:52.204Z,4040
2018-05-19T06:25:24.225Z,4028
2018-05-19T06:25:56.250Z,4016
2018-05-19T06:26:28.249Z,4036
2018-05-19T06:27:00.262Z,4072
2018-05-19T06:27:32.305Z,4120
2018-05-19T06:28:04.309Z,4120
2018-05-19T06:28:36.325Z,4104
2018-05-19T06:29:08.329Z,4132
2018-05-19T06:29:40.381Z,4148
2018-05-19T06:30:12.437Z,4160
2018-05-19T06:30:45.195Z,4176
2018-05-19T06:31:17.264Z,4224
2018-05-19T06:31:49.299Z,4272
2018-05-19T06:32:21.287Z,4292
2018-05-19T06:32:54.091Z,4320
2018-05-19T06:33:26.092Z,4304
2018-05-19T06:33:58.169Z,4264
2018-05-19T06:34:30.241Z,4308
2018-05-19T06:35:02.244Z,4352
2018-05-19T06:35:34.268Z,4376
2018-05-19T06:36:06.339Z,4416
2018-05-19T06:36:38.395Z,4440
2018-05-19T06:37:10.399Z,4428
2018-05-19T06:37:42.485Z,4448
2018-05-19T06:38:14.589Z,4444
2018-05-19T06:38:46.593Z,4436
2018-05-19T06:39:18.613Z,4432
2018-05-19T06:39:50.641Z,4440
2018-05-19T06:40:22.672Z,4480
2018-05-19T06:40:54.674Z,4500
2018-05-19T06:41:26.668Z,4456
2018-05-19T06:41:58.785Z,4448
2018-05-19T06:42:30.815Z,4404
2018-05-19T06:43:02.862Z,4420
2018-05-19T06:43:34.898Z,4448
2018-05-19T06:44:06.902Z,4428
2018-05-19T06:44:38.951Z,4460
2018-05-19T06:45:11.064Z,4496
2018-05-19T06:45:43.602Z,4496
2018-05-19T06:46:15.613Z,4532
2018-05-19T06:46:47.583Z,4580
2018-05-19T06:47:19.620Z,4552
2018-05-19T06:47:51.788Z,4500
2018-05-19T06:48:23.958Z,4412
2018-05-19T06:48:56.889Z,4420
2018-05-19T06:49:28.944Z,4532
2018-05-19T06:50:00.988Z,4608
2018-05-19T06:50:33.889Z,4628
2018-05-19T06:51:05.902Z,4632
2018-05-19T06:51:37.922Z,4660
2018-05-19T06:52:09.954Z,4672
2018-05-19T06:52:41.996Z,4680
2018-05-19T06:53:14.027Z,4668
2018-05-19T06:53:46.124Z,4628
2018-05-19T06:54:18.120Z,4616
2018-05-19T06:54:50.149Z,4632
2018-05-19T06:55:22.164Z,4660
2018-05-19T06:55:54.181Z,4688
2018-05-19T06:56:26.161Z,4716
2018-05-19T06:56:58.803Z,4712
2018-05-19T06:57:30.824Z,4648
2018-05-19T06:58:02.846Z,4556
2018-05-19T06:58:34.884Z,4500
2018-05-19T06:59:06.893Z,4532
2018-05-19T06:59:38.944Z,4580
2018-05-19T07:00:10.978Z,4576
2018-05-19T07:00:43.003Z,4588
2018-05-19T07:01:15.031Z,4636
2018-05-19T07:01:47.042Z,4708
2018-05-19T07:02:19.524Z,4768
2018-05-19T07:02:51.575Z,4832
2018-05-19T07:03:23.576Z,4868
2018-05-19T07:03:55.571Z,4908
2018-05-19T07:04:27.564Z,4944
2018-05-19T07:04:59.620Z,4976
2018-05-19T07:05:31.672Z,4996
2018-05-19T07:06:03.710Z,5024
2018-05-19T07:06:35.705Z,5012
2018-05-19T07:07:07.685Z,5016
2018-05-19T07:07:39.730Z,5008
2018-05-19T07:08:12.003Z,5020
2018-05-19T07:08:44.056Z,5028
2018-05-19T07:09:16.121Z,5020
2018-05-19T07:09:48.711Z,5044
2018-05-19T07:10:20.866Z,5056
2018-05-19T07:10:52.971Z,5072
2018-05-19T07:11:24.962Z,5076
2018-05-19T07:11:56.981Z,5084
2018-05-19T07:12:29.025Z,5064
2018-05-19T07:13:01.066Z,5052
2018-05-19T07:13:33.108Z,5032
2018-05-19T07:14:05.134Z,5032
2018-05-19T07:14:37.133Z,5028
2018-05-19T07:15:09.606Z,5012
2018-05-19T07:15:41.637Z,5020
2018-05-19T07:16:13.646Z,5044
2018-05-19T07:16:45.665Z,5056
2018-05-19T07:17:17.657Z,5100
2018-05-19T07:17:49.707Z,5132
2018-05-19T07:18:21.801Z,5156
2018-05-19T07:18:53.796Z,5184
2018-05-19T07:19:25.829Z,5208
2018-05-19T07:19:57.798Z,5228
2018-05-19T07:20:29.825Z,5252
2018-05-19T07:21:01.854Z,5264
2018-05-19T07:21:33.881Z,5272
2018-05-19T07:22:05.911Z,5256
2018-05-19T07:22:37.958Z,5252
2018-05-19T07:23:09.899Z,5244
2018-05-19T07:23:41.902Z,5228
2018-05-19T07:24:13.887Z,5216
2018-05-19T07:24:45.913Z,5220
2018-05-19T07:25:17.931Z,5232
2018-05-19T07:25:49.967Z,5248
2018-05-19T07:26:22.111Z,5240
2018-05-19T07:26:54.142Z,5244
2018-05-19T07:27:26.225Z,5256
2018-05-19T07:27:58.232Z,5248
2018-05-19T07:28:30.257Z,5256
2018-05-19T07:29:02.278Z,5244
2018-05-19T07:29:34.302Z,5248